Time;durP1;ratioP1;P1;durP2;ratioP2;P2;SDS_P1;SDS_P2;PMS_P1;PMS_P2;Temp;Humidity;BMP_temperature;BMP_pressure;BME280_temperature;BME280_humidity;BME280_pressure;Samples;Min_cycle;Max_cycle;Signal;HPM_P1;HPM_P2
2022/08/31 00:05:47;;;;;;;67.33;5.17;;;22.10;23.70;;;;;;5074859;28;20899;-81
2022/08/31 00:08:13;;;;;;;67.30;5.60;;;22.00;30.00;;;;;;5074561;28;20505;-81
2022/08/31 00:10:40;;;;;;;67.47;6.23;;;22.00;29.90;;;;;;5074368;28;20218;-82
2022/08/31 00:13:07;;;;;;;68.10;7.47;;;22.00;40.30;;;;;;5074305;28;20485;-82
2022/08/31 00:15:34;;;;;;;68.03;8.07;;;21.80;55.10;;;;;;5074255;28;20859;-81
2022/08/31 00:18:00;;;;;;;71.30;9.37;;;21.90;52.90;;;;;;5075592;28;20414;-82
2022/08/31 00:20:27;;;;;;;69.80;12.83;;;21.80;53.20;;;;;;5074251;28;20457;-82
2022/08/31 00:22:53;;;;;;;69.40;12.33;;;21.90;58.70;;;;;;5074333;28;20239;-83
2022/08/31 00:25:19;;;;;;;69.47;15.03;;;21.80;67.40;;;;;;5055911;28;20437;-82
2022/08/31 00:27:44;;;;;;;71.00;15.10;;;21.80;62.00;;;;;;5074788;28;20188;-82
2022/08/31 00:30:11;;;;;;;74.00;16.73;;;21.70;62.80;;;;;;5074351;28;20164;-82
2022/08/31 00:32:38;;;;;;;71.17;15.27;;;21.80;61.00;;;;;;5073845;28;20184;-82
2022/08/31 00:35:05;;;;;;;70.67;13.90;;;21.60;76.60;;;;;;5074420;28;20955;-82
2022/08/31 00:37:31;;;;;;;71.20;12.37;;;21.60;65.30;;;;;;5074425;28;20913;-82
2022/08/31 00:39:57;;;;;;;69.43;9.30;;;21.60;73.70;;;;;;5056802;28;20828;-83
2022/08/31 00:42:23;;;;;;;69.27;7.47;;;21.50;80.50;;;;;;5056642;28;20440;-82
2022/08/31 00:44:49;;;;;;;71.70;8.10;;;21.60;74.50;;;;;;5073939;28;20691;-82
2022/08/31 00:47:15;;;;;;;68.30;9.20;;;21.70;75.70;;;;;;5073911;28;20187;-82
2022/08/31 00:49:42;;;;;;;70.10;13.30;;;21.70;75.80;;;;;;5074276;28;20755;-82
2022/08/31 00:52:13;;;;;;;75.73;16.20;;;21.80;82.60;;;;;;5076821;28;20175;-82
2022/08/31 00:54:45;;;;;;;71.00;15.37;;;21.80;90.00;;;;;;5060165;28;20406;-82
2022/08/31 00:57:11;;;;;;;71.87;19.80;;;21.80;90.60;;;;;;5077514;28;20454;-82
2022/08/31 00:59:39;;;;;;;71.07;16.60;;;21.70;90.50;;;;;;5078658;28;20769;-82
2022/08/31 01:02:06;;;;;;;70.30;15.10;;;21.70;91.10;;;;;;5078101;28;20399;-82
2022/08/31 01:04:33;;;;;;;71.57;20.37;;;21.70;91.40;;;;;;5059873;28;20412;-83
2022/08/31 01:06:59;;;;;;;77.40;23.80;;;21.70;91.90;;;;;;5060435;28;20441;-82
2022/08/31 01:09:27;;;;;;;72.97;21.10;;;21.70;93.70;;;;;;5078861;28;20436;-83
2022/08/31 01:11:53;;;;;;;74.43;21.37;;;21.70;97.80;;;;;;5078297;28;20410;-84
2022/08/31 01:14:19;;;;;;;72.77;21.33;;;21.50;99.90;;;;;;5077802;28;20420;-84
2022/08/31 01:16:52;;;;;;;74.63;23.90;;;21.50;99.90;;;;;;5060372;28;20461;-84
2022/08/31 01:19:38;;;;;;;72.17;22.60;;;21.30;99.90;;;;;;5078875;28;20383;-83
2022/08/31 01:22:22;;;;;;;71.27;22.80;;;21.30;99.90;;;;;;5079754;28;20382;-83
2022/08/31 01:24:49;;;;;;;72.70;19.07;;;21.10;99.90;;;;;;5060877;28;20449;-83
2022/08/31 01:27:18;;;;;;;75.27;22.80;;;20.80;99.90;;;;;;5062329;28;20483;-83
2022/08/31 01:29:44;;;;;;;75.37;24.60;;;20.60;99.90;;;;;;5061462;28;20500;-82
2022/08/31 01:32:10;;;;;;;71.77;23.37;;;20.60;99.90;;;;;;5079797;28;20468;-83
2022/08/31 01:34:35;;;;;;;75.93;22.10;;;20.60;99.90;;;;;;5080041;28;20607;-82
2022/08/31 01:37:01;;;;;;;72.53;20.40;;;20.60;99.90;;;;;;5061614;28;20207;-83
2022/08/31 01:39:27;;;;;;;75.57;20.77;;;20.60;99.90;;;;;;5080653;28;20194;-83
2022/08/31 01:41:53;;;;;;;73.60;18.37;;;20.70;99.90;;;;;;5063361;28;20406;-82
2022/08/31 01:44:22;;;;;;;71.87;17.00;;;20.90;99.90;;;;;;5081022;28;20406;-83
2022/08/31 01:46:48;;;;;;;73.27;16.20;;;21.00;99.90;;;;;;5080924;28;20198;-82
2022/08/31 01:49:15;;;;;;;72.10;17.13;;;21.20;99.90;;;;;;5080430;28;20481;-83
2022/08/31 01:51:41;;;;;;;70.50;15.93;;;21.20;99.90;;;;;;5079466;28;20623;-82
2022/08/31 01:54:10;;;;;;;73.13;19.37;;;21.20;99.90;;;;;;5079944;28;20437;-82
2022/08/31 01:56:39;;;;;;;72.00;19.40;;;21.20;99.90;;;;;;5080049;28;20450;-82
2022/08/31 01:59:08;;;;;;;70.10;14.40;;;20.90;99.90;;;;;;5062092;28;20425;-82
2022/08/31 02:01:36;;;;;;;70.17;14.50;;;21.00;99.90;;;;;;5061860;28;20405;-82
2022/08/31 02:04:04;;;;;;;71.17;14.43;;;21.00;99.90;;;;;;5078494;28;20426;-82
2022/08/31 02:06:31;;;;;;;70.17;13.90;;;20.90;99.90;;;;;;5061995;28;20441;-83
2022/08/31 02:08:57;;;;;;;69.70;13.17;;;20.80;99.90;;;;;;5079495;28;20500;-82
2022/08/31 02:11:22;;;;;;;72.97;10.63;;;20.90;99.90;;;;;;5079612;28;20491;-82
2022/08/31 02:13:48;;;;;;;69.10;11.23;;;20.90;99.90;;;;;;5079391;28;20832;-82
2022/08/31 02:16:14;;;;;;;68.67;11.43;;;20.90;99.90;;;;;;5079409;28;20210;-83
2022/08/31 02:18:39;;;;;;;69.97;13.43;;;20.90;99.90;;;;;;5060805;28;20259;-83
2022/08/31 02:21:05;;;;;;;69.00;13.83;;;20.90;99.90;;;;;;5078048;28;20164;-83
2022/08/31 02:23:31;;;;;;;68.00;11.00;;;20.80;99.90;;;;;;5077577;28;20172;-83
2022/08/31 02:25:57;;;;;;;68.90;11.40;;;20.90;99.90;;;;;;5076966;28;20216;-83
2022/08/31 02:28:23;;;;;;;71.13;11.63;;;20.90;99.90;;;;;;5077846;28;20823;-83
2022/08/31 02:30:49;;;;;;;69.40;12.97;;;21.00;99.90;;;;;;5078106;28;20209;-82
2022/08/31 02:33:15;;;;;;;70.53;12.37;;;20.90;99.90;;;;;;5078031;28;20523;-83
2022/08/31 02:35:41;;;;;;;72.83;11.97;;;21.00;99.90;;;;;;5078278;28;20194;-83
2022/08/31 02:38:08;;;;;;;69.50;11.43;;;21.00;99.90;;;;;;5079125;28;20203;-83
2022/08/31 02:40:37;;;;;;;68.90;10.23;;;21.10;99.90;;;;;;5060316;28;20406;-83
2022/08/31 02:43:13;;;;;;;68.50;11.33;;;21.00;99.90;;;;;;5077413;28;20952;-83
2022/08/31 02:45:38;;;;;;;69.53;12.50;;;21.00;99.90;;;;;;5077914;28;20390;-83
2022/08/31 02:48:05;;;;;;;69.50;11.83;;;20.90;99.90;;;;;;5075455;28;20425;-82
2022/08/31 02:50:32;;;;;;;76.20;11.60;;;20.80;99.90;;;;;;5059672;28;20258;-83
2022/08/31 02:52:58;;;;;;;70.10;13.07;;;20.80;99.90;;;;;;5060301;28;20777;-83
2022/08/31 02:55:25;;;;;;;68.30;11.93;;;20.80;99.90;;;;;;5079202;28;20932;-82
2022/08/31 02:57:51;;;;;;;69.67;9.53;;;20.80;99.90;;;;;;5079693;28;20422;-82
2022/08/31 03:00:21;;;;;;;68.03;9.30;;;20.80;99.90;;;;;;5079397;28;20402;-83
2022/08/31 03:02:47;;;;;;;68.80;10.23;;;20.80;99.90;;;;;;5080414;28;20963;-83
2022/08/31 03:05:14;;;;;;;69.83;9.80;;;20.90;99.90;;;;;;5079630;28;20456;-82
2022/08/31 03:07:40;;;;;;;68.70;9.27;;;20.80;99.90;;;;;;5060921;28;20428;-82
2022/08/31 03:10:09;;;;;;;69.93;9.23;;;20.80;99.90;;;;;;5079089;28;20414;-84
2022/08/31 03:12:35;;;;;;;67.47;7.57;;;20.80;99.90;;;;;;5078941;28;20434;-82
2022/08/31 03:15:05;;;;;;;70.20;9.27;;;20.80;99.90;;;;;;5078470;28;20413;-83
2022/08/31 03:17:31;;;;;;;72.40;9.07;;;20.80;99.90;;;;;;5061617;28;20460;-82
2022/08/31 03:19:59;;;;;;;68.20;8.40;;;20.70;99.90;;;;;;5079777;28;20402;-83
2022/08/31 03:22:26;;;;;;;72.20;10.90;;;20.70;99.90;;;;;;5079558;28;20402;-82
2022/08/31 03:24:52;;;;;;;69.40;8.40;;;20.70;99.90;;;;;;5061953;28;20497;-83
2022/08/31 03:27:18;;;;;;;67.80;8.40;;;20.70;99.90;;;;;;5079285;28;20459;-83
2022/08/31 03:29:43;;;;;;;68.53;7.43;;;20.70;99.90;;;;;;5061498;28;20500;-82
2022/08/31 03:32:09;;;;;;;71.80;9.40;;;20.70;99.90;;;;;;5078911;28;20187;-83
2022/08/31 03:34:35;;;;;;;68.07;9.20;;;20.70;99.90;;;;;;5078790;28;20192;-82
2022/08/31 03:37:00;;;;;;;71.33;9.17;;;20.60;99.90;;;;;;5079435;28;20205;-83
2022/08/31 03:39:26;;;;;;;78.30;8.83;;;20.70;99.90;;;;;;5062305;28;20231;-82
2022/08/31 03:41:52;;;;;;;68.90;9.10;;;20.70;99.90;;;;;;5061212;28;20182;-83
2022/08/31 03:44:22;;;;;;;67.37;8.00;;;20.70;99.90;;;;;;5078936;28;20165;-82
2022/08/31 03:46:48;;;;;;;67.73;7.23;;;20.70;99.90;;;;;;5078118;28;20230;-82
2022/08/31 03:49:17;;;;;;;70.43;9.70;;;20.70;99.90;;;;;;5078742;28;20401;-83
2022/08/31 03:51:43;;;;;;;67.90;9.27;;;20.60;99.90;;;;;;5078952;28;20452;-83
2022/08/31 03:54:09;;;;;;;68.00;8.40;;;20.60;99.90;;;;;;5060637;28;20408;-83
2022/08/31 03:56:34;;;;;;;68.80;8.70;;;20.60;99.90;;;;;;5079378;28;20453;-83
2022/08/31 03:59:01;;;;;;;69.00;7.83;;;20.50;99.90;;;;;;5080947;28;20167;-83
2022/08/31 04:01:26;;;;;;;68.20;8.03;;;20.60;99.90;;;;;;5079715;28;20162;-83
2022/08/31 04:03:52;;;;;;;71.47;9.27;;;20.50;99.90;;;;;;5061609;28;20411;-82
2022/08/31 04:06:18;;;;;;;73.37;8.77;;;20.50;99.90;;;;;;5079294;28;20239;-82
2022/08/31 04:08:43;;;;;;;70.40;9.07;;;20.50;99.90;;;;;;5079656;28;20245;-82
2022/08/31 04:11:12;;;;;;;67.60;8.50;;;20.50;99.90;;;;;;5078815;28;20164;-82
2022/08/31 04:13:39;;;;;;;68.53;8.73;;;20.50;99.90;;;;;;5061337;28;20599;-82
2022/08/31 04:16:08;;;;;;;69.07;9.07;;;20.50;99.90;;;;;;5059976;28;20533;-82
2022/08/31 04:18:39;;;;;;;69.57;8.63;;;20.50;99.90;;;;;;5078903;28;20808;-83
2022/08/31 04:21:11;;;;;;;69.10;9.33;;;20.50;99.90;;;;;;5078702;28;20377;-82
2022/08/31 04:23:39;;;;;;;69.70;11.57;;;20.40;99.90;;;;;;5061080;28;20414;-82
2022/08/31 04:26:06;;;;;;;68.37;8.80;;;20.40;99.90;;;;;;5081208;28;20401;-81
2022/08/31 04:28:32;;;;;;;71.67;9.23;;;20.40;99.90;;;;;;5084803;28;20419;-83
2022/08/31 04:30:57;;;;;;;71.20;8.80;;;20.40;99.90;;;;;;5085194;28;20425;-82
2022/08/31 04:33:23;;;;;;;69.97;8.93;;;20.40;99.90;;;;;;5148803;22;20230;-85
2022/08/31 04:35:49;;;;;;;71.50;11.03;;;20.40;99.90;;;;;;5084709;28;20195;-85
2022/08/31 04:38:14;;;;;;;69.33;9.40;;;20.30;99.90;;;;;;5086094;28;20243;-85
2022/08/31 04:40:42;;;;;;;70.30;9.70;;;20.30;99.90;;;;;;5068255;28;20168;-85
2022/08/31 04:43:08;;;;;;;70.43;9.40;;;20.30;99.90;;;;;;5068525;28;20164;-85
2022/08/31 04:45:33;;;;;;;70.80;9.67;;;20.30;99.90;;;;;;5085868;28;20800;-85
2022/08/31 04:47:59;;;;;;;69.30;9.60;;;20.40;99.90;;;;;;5086526;28;20188;-85
2022/08/31 04:50:25;;;;;;;69.03;8.80;;;20.40;99.90;;;;;;5086322;28;20661;-85
2022/08/31 04:52:50;;;;;;;68.30;9.33;;;20.30;99.90;;;;;;5086181;28;20199;-85
2022/08/31 04:55:16;;;;;;;69.87;9.20;;;20.20;99.90;;;;;;5085809;28;20627;-85
2022/08/31 04:57:42;;;;;;;69.90;10.30;;;20.10;99.90;;;;;;5085278;28;20186;-85
2022/08/31 05:00:09;;;;;;;69.80;10.70;;;20.10;99.90;;;;;;5086161;28;20402;-85
2022/08/31 05:02:35;;;;;;;70.17;10.40;;;20.10;99.90;;;;;;5067183;28;20172;-85
2022/08/31 05:05:03;;;;;;;71.20;11.23;;;20.10;99.90;;;;;;5086343;28;20502;-85
2022/08/31 05:07:29;;;;;;;70.43;9.80;;;20.00;99.90;;;;;;5086086;28;20959;-86
2022/08/31 05:09:54;;;;;;;71.17;9.33;;;20.10;99.90;;;;;;5068019;28;20416;-86
2022/08/31 05:12:21;;;;;;;69.67;9.70;;;20.00;99.90;;;;;;5086902;28;20451;-86
2022/08/31 05:14:47;;;;;;;72.00;11.70;;;20.00;99.90;;;;;;5068587;28;20222;-86
2022/08/31 05:17:13;;;;;;;70.47;13.47;;;20.00;99.90;;;;;;5087305;28;20454;-86
2022/08/31 05:19:39;;;;;;;69.57;12.60;;;19.90;99.90;;;;;;5087111;28;20230;-86
2022/08/31 05:22:05;;;;;;;72.70;14.13;;;20.00;99.90;;;;;;5070035;28;20408;-86
2022/08/31 05:24:34;;;;;;;73.47;14.33;;;20.00;99.90;;;;;;5070671;28;20177;-86
2022/08/31 05:27:01;;;;;;;72.80;14.50;;;20.00;99.90;;;;;;5070740;28;20198;-86
2022/08/31 05:29:27;;;;;;;74.03;17.17;;;19.90;99.90;;;;;;5088254;28;20419;-86
2022/08/31 05:31:53;;;;;;;73.17;16.87;;;19.90;99.90;;;;;;5069646;28;20450;-85
2022/08/31 05:34:22;;;;;;;72.50;15.47;;;19.90;99.90;;;;;;5087447;28;20900;-85
2022/08/31 05:36:54;;;;;;;70.77;15.33;;;19.90;99.90;;;;;;5087165;28;20221;-85
2022/08/31 05:39:20;;;;;;;74.20;15.50;;;20.00;99.90;;;;;;5066617;28;20507;-85
2022/08/31 05:41:46;;;;;;;71.53;16.53;;;20.00;99.90;;;;;;5065608;28;20829;-85
2022/08/31 05:44:13;;;;;;;72.57;16.00;;;20.00;99.90;;;;;;5083808;28;20407;-86
2022/08/31 05:46:39;;;;;;;73.67;16.27;;;20.10;99.90;;;;;;5082871;28;20498;-85
2022/08/31 05:49:06;;;;;;;70.87;15.27;;;20.10;99.90;;;;;;5083612;28;20409;-85
2022/08/31 05:51:33;;;;;;;71.40;16.97;;;20.10;99.90;;;;;;5083636;28;20412;-85
2022/08/31 05:54:00;;;;;;;77.30;18.60;;;20.20;99.90;;;;;;5082370;28;20408;-85
2022/08/31 05:56:27;;;;;;;73.40;17.47;;;20.00;99.90;;;;;;5083096;28;20584;-85
2022/08/31 05:58:53;;;;;;;70.80;18.30;;;20.00;99.90;;;;;;5082949;28;20431;-85
2022/08/31 06:01:24;;;;;;;74.73;20.27;;;20.10;99.90;;;;;;5082989;28;20408;-85
2022/08/31 06:03:52;;;;;;;72.77;17.90;;;20.20;99.90;;;;;;5082885;28;20395;-85
2022/08/31 06:06:19;;;;;;;76.47;15.50;;;20.20;99.90;;;;;;5081839;28;20409;-85
2022/08/31 06:08:44;;;;;;;73.67;17.07;;;20.20;99.90;;;;;;5064064;28;20427;-85
2022/08/31 06:11:16;;;;;;;76.77;16.10;;;20.20;99.90;;;;;;5063813;28;20507;-85
2022/08/31 06:13:42;;;;;;;76.30;16.87;;;20.20;99.90;;;;;;5081919;28;20452;-85
2022/08/31 06:16:08;;;;;;;72.30;16.03;;;20.10;99.90;;;;;;5081727;28;20457;-85
2022/08/31 06:18:37;;;;;;;71.93;16.73;;;20.10;99.90;;;;;;5081995;28;20907;-85
2022/08/31 06:21:08;;;;;;;74.67;17.63;;;20.10;99.90;;;;;;5081839;28;20471;-85
2022/08/31 06:23:35;;;;;;;73.57;18.20;;;20.20;99.90;;;;;;5081527;28;20541;-85
2022/08/31 06:26:04;;;;;;;74.47;17.23;;;20.30;99.90;;;;;;5081777;28;20414;-85
2022/08/31 06:28:31;;;;;;;74.50;17.67;;;20.40;99.90;;;;;;5063872;28;20415;-85
2022/08/31 06:31:01;;;;;;;73.00;15.00;;;20.40;99.90;;;;;;5081225;28;20758;-85
2022/08/31 06:33:28;;;;;;;72.10;14.97;;;20.20;99.90;;;;;;5081279;28;20525;-85
2022/08/31 06:35:54;;;;;;;77.80;14.43;;;20.00;99.90;;;;;;5081738;28;20447;-85
2022/08/31 06:38:20;;;;;;;74.03;15.93;;;20.00;99.90;;;;;;5080581;28;20435;-85
2022/08/31 06:40:46;;;;;;;71.47;17.13;;;20.00;99.90;;;;;;5081278;28;20414;-85
2022/08/31 06:43:12;;;;;;;72.50;13.17;;;20.00;99.90;;;;;;5064012;28;20414;-86
2022/08/31 06:45:38;;;;;;;73.13;14.33;;;19.90;99.90;;;;;;5065103;28;20521;-85
2022/08/31 06:48:04;;;;;;;71.97;13.10;;;19.80;99.90;;;;;;5082761;28;20431;-85
2022/08/31 06:50:31;;;;;;;72.93;15.27;;;19.90;99.90;;;;;;5082684;28;20393;-85
2022/08/31 06:52:57;;;;;;;73.73;12.77;;;20.00;99.90;;;;;;5064980;28;20544;-85
2022/08/31 06:55:23;;;;;;;71.27;12.43;;;19.90;99.90;;;;;;5063709;28;20811;-85
2022/08/31 06:57:48;;;;;;;76.53;18.27;;;19.70;99.90;;;;;;5064325;28;20212;-85
2022/08/31 07:00:14;;;;;;;73.90;16.90;;;19.90;99.90;;;;;;5082066;28;20399;-85
2022/08/31 07:02:40;;;;;;;73.13;17.47;;;20.10;99.90;;;;;;5064838;28;20171;-85
2022/08/31 07:05:06;;;;;;;76.27;15.77;;;20.20;99.90;;;;;;5082426;28;20162;-85
2022/08/31 07:07:31;;;;;;;73.77;16.60;;;20.20;99.90;;;;;;5082458;28;20769;-85
2022/08/31 07:09:57;;;;;;;74.90;20.13;;;20.20;99.90;;;;;;5064125;28;20438;-85
2022/08/31 07:12:23;;;;;;;73.23;18.20;;;20.20;99.90;;;;;;5064494;28;20179;-85
2022/08/31 07:14:49;;;;;;;78.70;18.00;;;20.10;99.90;;;;;;5063929;28;20171;-85
2022/08/31 07:17:14;;;;;;;73.10;17.23;;;20.10;99.90;;;;;;5063579;28;20229;-85
2022/08/31 07:19:40;;;;;;;77.70;19.27;;;20.00;99.90;;;;;;5082195;28;20171;-85
2022/08/31 07:22:08;;;;;;;72.70;19.43;;;20.10;99.90;;;;;;5064598;28;20234;-85
2022/08/31 07:24:35;;;;;;;73.47;15.77;;;20.20;99.90;;;;;;5064201;28;20164;-85
2022/08/31 07:27:13;;;;;;;74.07;14.63;;;20.20;99.90;;;;;;5081779;28;20421;-85
2022/08/31 07:29:39;;;;;;;72.23;16.80;;;20.30;99.90;;;;;;5064270;28;20402;-85
2022/08/31 07:32:07;;;;;;;73.10;15.70;;;20.50;99.90;;;;;;5082235;28;20989;-85
2022/08/31 07:34:34;;;;;;;74.23;16.90;;;20.60;99.90;;;;;;5082536;28;20379;-87
2022/08/31 07:42:33;;;;;;;74.37;16.03;;;20.60;99.90;;;;;;5082768;28;20381;-85
2022/08/31 07:45:01;;;;;;;74.13;16.87;;;20.70;99.90;;;;;;5063739;28;20394;-85
2022/08/31 07:47:27;;;;;;;72.20;16.90;;;20.80;99.90;;;;;;5081130;28;20452;-85
2022/08/31 07:49:55;;;;;;;74.80;14.50;;;20.80;99.90;;;;;;5065397;28;20463;-85
2022/08/31 07:52:30;;;;;;;72.70;16.10;;;20.70;99.90;;;;;;5082073;28;20409;-86
2022/08/31 07:55:05;;;;;;;73.80;15.63;;;20.70;99.90;;;;;;5063728;28;20975;-86
2022/08/31 07:57:39;;;;;;;72.57;15.50;;;20.60;99.90;;;;;;5080925;28;20820;-85
2022/08/31 08:00:08;;;;;;;78.40;17.90;;;20.50;99.90;;;;;;5064040;28;20385;-85
2022/08/31 08:02:39;;;;;;;75.37;16.90;;;20.60;99.90;;;;;;5081455;28;20399;-85
2022/08/31 08:05:09;;;;;;;72.90;16.00;;;20.70;99.90;;;;;;5062793;28;20947;-86
2022/08/31 08:07:38;;;;;;;71.90;13.00;;;20.80;99.90;;;;;;5080724;28;20432;-86
2022/08/31 08:10:08;;;;;;;71.70;13.00;;;20.90;99.90;;;;;;5062974;28;20437;-86
2022/08/31 08:12:35;;;;;;;71.60;14.20;;;20.70;99.90;;;;;;5081065;28;20385;-85
2022/08/31 08:15:05;;;;;;;71.07;12.63;;;20.50;99.90;;;;;;5080967;28;20409;-85
2022/08/31 08:17:31;;;;;;;69.87;12.73;;;20.50;99.90;;;;;;5064012;28;20536;-85
2022/08/31 08:19:57;;;;;;;70.90;9.13;;;20.70;99.90;;;;;;5063564;28;20449;-85
2022/08/31 08:22:23;;;;;;;72.00;9.00;;;20.80;99.90;;;;;;5062752;28;20411;-85
2022/08/31 08:24:49;;;;;;;72.30;15.00;;;21.00;99.90;;;;;;5064129;28;20285;-86
2022/08/31 08:27:16;;;;;;;69.50;9.70;;;21.00;99.90;;;;;;5064237;28;20430;-86
2022/08/31 08:29:43;;;;;;;69.70;10.00;;;21.00;99.90;;;;;;5063731;28;20410;-85
2022/08/31 08:32:09;;;;;;;67.50;7.90;;;21.10;99.90;;;;;;5063835;28;20794;-85
2022/08/31 08:34:42;;;;;;;70.30;8.60;;;21.20;99.90;;;;;;5064227;28;20410;-86
2022/08/31 08:37:12;;;;;;;71.27;8.10;;;21.30;99.90;;;;;;5081930;28;20449;-85
2022/08/31 08:39:41;;;;;;;68.03;7.60;;;21.40;99.90;;;;;;5063914;28;20434;-85
2022/08/31 08:42:10;;;;;;;68.57;8.20;;;21.40;99.90;;;;;;5081479;28;20437;-86
2022/08/31 08:44:37;;;;;;;75.63;9.90;;;21.40;99.90;;;;;;5063601;28;20441;-87
2022/08/31 08:47:17;;;;;;;70.20;8.93;;;21.40;99.90;;;;;;5081622;28;20414;-86
2022/08/31 08:49:54;;;;;;;72.70;9.67;;;21.30;99.90;;;;;;5081632;28;20444;-85
2022/08/31 08:52:46;;;;;;;69.50;7.37;;;21.20;99.90;;;;;;5063147;28;20420;-85
2022/08/31 08:55:22;;;;;;;68.20;8.17;;;21.40;99.90;;;;;;5081121;28;20386;-86
2022/08/31 08:57:50;;;;;;;72.27;9.20;;;21.30;99.90;;;;;;5062461;28;20434;-85
2022/08/31 09:00:20;;;;;;;75.47;9.37;;;21.30;99.90;;;;;;5081309;28;20456;-86
2022/08/31 09:03:09;;;;;;;70.57;9.00;;;21.00;99.90;;;;;;5062781;28;20402;-86
2022/08/31 09:06:05;;;;;;;68.63;8.43;;;20.90;99.90;;;;;;5062611;28;20398;-85
2022/08/31 09:08:34;;;;;;;68.80;8.40;;;21.10;99.90;;;;;;5080241;28;20403;-85
2022/08/31 09:11:22;;;;;;;69.37;8.90;;;21.20;99.90;;;;;;5063467;28;20413;-85
2022/08/31 09:14:18;;;;;;;69.07;8.33;;;21.10;99.90;;;;;;5083731;28;20375;-85
2022/08/31 09:17:02;;;;;;;71.80;9.13;;;21.20;99.90;;;;;;5054529;28;20472;-85
2022/08/31 09:19:57;;;;;;;70.10;8.30;;;21.40;99.90;;;;;;5084109;28;20904;-85
2022/08/31 09:22:14;;;;;;;67.93;7.63;;;21.40;99.90;;;;;;5083536;28;20434;-85
2022/08/31 09:24:39;;;;;;;71.50;8.70;;;21.50;99.90;;;;;;5065100;28;20409;-85
2022/08/31 09:27:17;;;;;;;73.57;8.80;;;21.60;99.90;;;;;;5065083;28;20191;-85
2022/08/31 09:29:44;;;;;;;71.07;8.00;;;21.60;99.90;;;;;;5083262;28;20238;-85
2022/08/31 09:32:15;;;;;;;68.57;7.73;;;21.70;99.90;;;;;;5083694;28;20905;-85
2022/08/31 09:34:41;;;;;;;68.27;7.30;;;21.50;99.90;;;;;;5082418;28;20421;-85
2022/08/31 09:37:10;;;;;;;66.97;6.93;;;21.50;99.90;;;;;;5083227;28;20875;-85
2022/08/31 09:39:36;;;;;;;69.07;8.03;;;21.60;99.90;;;;;;5064777;28;20412;-85
2022/08/31 09:42:13;;;;;;;71.37;8.50;;;21.80;99.90;;;;;;5083141;28;20399;-85
2022/08/31 09:44:45;;;;;;;67.67;7.43;;;21.60;99.40;;;;;;5083273;28;20469;-85
2022/08/31 09:47:57;;;;;;;68.27;7.90;;;21.40;98.00;;;;;;5064634;28;20441;-85
2022/08/31 09:50:45;;;;;;;68.10;7.47;;;21.80;99.90;;;;;;5083361;28;20402;-85
2022/08/31 09:56:24;;;;;;;69.93;8.00;;;22.40;93.30;;;;;;5082387;28;20438;-85
2022/08/31 09:58:53;;;;;;;71.97;8.10;;;22.70;92.90;;;;;;5058266;28;20921;-85
2022/08/31 10:01:38;;;;;;;70.70;8.03;;;22.70;93.40;;;;;;5064896;28;20662;-85
2022/08/31 10:04:14;;;;;;;68.47;8.03;;;22.90;91.70;;;;;;5064391;28;20399;-85
2022/08/31 10:06:54;;;;;;;70.20;7.17;;;23.20;89.40;;;;;;5081800;28;20421;-85
2022/08/31 10:09:48;;;;;;;68.73;7.40;;;23.40;81.30;;;;;;5082066;28;20398;-85
2022/08/31 10:12:47;;;;;;;68.70;7.33;;;23.80;75.20;;;;;;5063550;28;20928;-85
2022/08/31 10:15:32;;;;;;;69.93;7.33;;;24.30;53.80;;;;;;5064447;28;20502;-85
2022/08/31 10:18:21;;;;;;;70.47;7.90;;;24.00;51.20;;;;;;5064021;28;20517;-86
2022/08/31 10:20:55;;;;;;;67.10;6.23;;;23.80;57.80;;;;;;5063213;28;20424;-86
2022/08/31 10:23:37;;;;;;;72.67;6.50;;;24.00;55.10;;;;;;5081494;28;20379;-86
2022/08/31 10:26:19;;;;;;;69.80;6.60;;;23.80;52.50;;;;;;5081741;28;20794;-85
2022/08/31 10:28:54;;;;;;;69.40;8.00;;;24.00;50.80;;;;;;5063475;28;20743;-85
2022/08/31 10:31:33;;;;;;;69.80;11.10;;;24.40;46.00;;;;;;5063532;28;20417;-86
2022/08/31 10:37:07;;;;;;;71.70;12.13;;;24.40;44.80;;;;;;5077241;28;20541;-82
2022/08/31 10:39:43;;;;;;;72.37;9.63;;;24.60;40.90;;;;;;5059395;28;20408;-82
2022/08/31 10:42:28;;;;;;;72.20;10.93;;;24.60;41.90;;;;;;5077378;28;20417;-82
2022/08/31 10:45:16;;;;;;;69.00;10.57;;;24.40;38.00;;;;;;5059142;28;20396;-82
2022/08/31 10:47:49;;;;;;;71.63;10.37;;;24.40;38.70;;;;;;5077401;28;20451;-82
2022/08/31 10:50:34;;;;;;;71.60;10.07;;;24.80;37.50;;;;;;5077186;28;20393;-82
2022/08/31 10:53:12;;;;;;;68.87;9.37;;;24.90;23.80;;;;;;5077065;28;20404;-82
2022/08/31 10:56:11;;;;;;;71.43;9.27;;;24.90;26.90;;;;;;5077432;28;20386;-82
2022/08/31 10:59:06;;;;;;;69.20;8.27;;;24.80;25.00;;;;;;5076861;28;20736;-82
2022/08/31 11:01:52;;;;;;;70.40;9.80;;;25.10;23.60;;;;;;5077533;28;20461;-82
2022/08/31 11:04:49;;;;;;;68.77;9.23;;;25.10;28.10;;;;;;5076583;28;20385;-82
2022/08/31 11:07:35;;;;;;;75.47;7.33;;;25.30;24.80;;;;;;5038637;28;20872;-82
2022/08/31 11:10:07;;;;;;;70.20;6.93;;;25.30;16.10;;;;;;5076770;28;20376;-82
2022/08/31 11:12:41;;;;;;;67.83;6.00;;;25.30;22.10;;;;;;5076022;28;20974;-82
2022/08/31 11:15:37;;;;;;;68.00;5.60;;;25.50;18.40;;;;;;5058542;28;20519;-82
2022/08/31 11:18:38;;;;;;;68.00;5.30;;;25.70;3.70;;;;;;5076732;28;20793;-82
2022/08/31 11:21:33;;;;;;;70.10;5.53;;;25.80;2.50;;;;;;5058741;28;20391;-81
2022/08/31 11:24:27;;;;;;;68.37;4.73;;;26.10;1.00;;;;;;5058024;28;20401;-82
2022/08/31 11:27:03;;;;;;;69.43;4.30;;;26.20;1.00;;;;;;5076328;28;20925;-82
2022/08/31 11:29:42;;;;;;;70.47;5.00;;;26.40;1.00;;;;;;5076946;28;20457;-82
2022/08/31 11:32:28;;;;;;;69.10;4.97;;;26.10;1.00;;;;;;5057748;28;20402;-81
2022/08/31 11:34:57;;;;;;;68.97;4.73;;;26.20;1.00;;;;;;5075855;28;21033;-82
2022/08/31 11:37:49;;;;;;;69.17;5.17;;;26.10;1.00;;;;;;5075610;28;21027;-82
2022/08/31 11:40:41;;;;;;;67.77;4.60;;;26.10;1.00;;;;;;5057865;28;20938;-82
2022/08/31 11:43:34;;;;;;;67.17;4.70;;;26.30;1.00;;;;;;5057725;28;20459;-82
2022/08/31 11:46:25;;;;;;;67.67;5.40;;;26.10;1.00;;;;;;5058929;28;20411;-82
2022/08/31 11:48:52;;;;;;;68.53;5.50;;;25.80;1.00;;;;;;5076018;28;20409;-82
2022/08/31 11:51:43;;;;;;;69.00;5.50;;;25.80;1.00;;;;;;5075960;28;20497;-82
2022/08/31 11:54:25;;;;;;;69.20;5.53;;;25.80;1.00;;;;;;5057012;28;20848;-81
2022/08/31 11:56:55;;;;;;;68.77;5.33;;;26.20;1.00;;;;;;5075291;28;20528;-81
2022/08/31 11:59:29;;;;;;;69.20;5.30;;;26.40;1.00;;;;;;5076169;28;20456;-81
2022/08/31 12:01:59;;;;;;;69.30;5.47;;;26.30;1.00;;;;;;5076939;28;20429;-82
2022/08/31 12:04:46;;;;;;;69.80;5.60;;;26.10;1.00;;;;;;5077238;28;20394;-82
2022/08/31 12:07:14;;;;;;;68.70;5.57;;;26.00;1.00;;;;;;5051520;28;20430;-82
2022/08/31 12:10:14;;;;;;;68.67;4.87;;;25.90;1.00;;;;;;5076579;28;20410;-82
2022/08/31 12:12:43;;;;;;;67.03;4.50;;;25.70;1.00;;;;;;5058307;28;20422;-82
2022/08/31 12:15:39;;;;;;;67.73;4.57;;;25.60;1.00;;;;;;5057259;28;20534;-82
2022/08/31 12:18:11;;;;;;;67.97;4.53;;;25.80;1.00;;;;;;5075391;28;20430;-82
2022/08/31 12:24:11;;;;;;;68.87;5.03;;;26.00;1.00;;;;;;5075554;28;20397;-82
2022/08/31 12:27:31;;;;;;;67.80;4.90;;;26.20;1.00;;;;;;5076040;28;20502;-82
2022/08/31 12:30:13;;;;;;;71.70;4.63;;;26.30;1.00;;;;;;5013834;28;20413;-82
2022/08/31 12:32:43;;;;;;;70.10;5.40;;;26.30;1.00;;;;;;5069895;28;20487;-82
2022/08/31 12:35:22;;;;;;;67.63;4.70;;;26.40;1.00;;;;;;5076235;28;20449;-82
2022/08/31 12:38:02;;;;;;;68.60;5.40;;;26.20;1.00;;;;;;5075016;28;20450;-82
2022/08/31 12:40:43;;;;;;;68.40;5.17;;;26.30;1.00;;;;;;5075397;28;20846;-82
2022/08/31 12:43:36;;;;;;;67.57;5.00;;;26.80;1.00;;;;;;5075198;28;20382;-82
2022/08/31 12:46:29;;;;;;;69.07;5.13;;;26.80;1.00;;;;;;5075188;28;20439;-82
2022/08/31 12:49:10;;;;;;;70.40;4.93;;;27.10;1.00;;;;;;5079618;28;20409;-82
2022/08/31 12:51:48;;;;;;;69.10;5.30;;;27.00;1.00;;;;;;5078993;28;20440;-82
2022/08/31 12:54:48;;;;;;;66.90;4.13;;;26.90;1.00;;;;;;5079328;28;20379;-82
2022/08/31 12:57:32;;;;;;;70.00;4.77;;;26.90;1.00;;;;;;5061024;28;20458;-82
2022/08/31 13:00:09;;;;;;;67.80;4.07;;;26.90;1.00;;;;;;5060970;28;20769;-82
2022/08/31 13:02:40;;;;;;;70.70;4.73;;;26.70;1.00;;;;;;5079017;28;20382;-82
2022/08/31 13:05:26;;;;;;;68.27;5.17;;;26.20;1.00;;;;;;5061056;28;20493;-82
2022/08/31 13:07:52;;;;;;;68.53;5.07;;;26.10;1.00;;;;;;5079140;28;20422;-83
2022/08/31 13:10:24;;;;;;;70.37;5.13;;;26.00;1.00;;;;;;5061179;28;20426;-82
2022/08/31 13:12:57;;;;;;;67.40;4.60;;;25.90;1.00;;;;;;5061197;28;20433;-82
2022/08/31 13:15:36;;;;;;;69.57;5.57;;;26.00;1.00;;;;;;5079080;28;20393;-82